Terminal Aerodrome Forecast
Issued by NWS Duluth, MN

Home | Current Version | Previous Version | Text Only | Print | Product List | Glossary On
Versions: 1 2 3 4 5 6 7 8 9 10 11 12 13 14 15 16 17 18 19 20 21 22 23 24 25
000
FTUS43 KDLH 231600 AAA
TAFDLH
TAF AMD
KDLH 231621Z 2316/2412 22005KT 1/4SM FG VV002
     FM232000 27005KT 1/2SM FG OVC004
     FM232200 30007KT 1SM BR OVC006
     FM240200 32009KT 1/2SM -RASN FG OVC004
     FM240900 34014G22KT 2SM -SN BR OVC007=

USA.gov is the U.S. government's official web portal to all federal, state and local government web resources and services.